sensor_id;sensor_type;location;lat;lon;timestamp;P1;durP1;ratioP1;P2;durP2;ratioP2
9052;SDS011;4561;47.450;7.516;2023-11-19T00:00:28;1.53;;;0.90;;
9052;SDS011;4561;47.450;7.516;2023-11-19T00:03:51;1.40;;;0.87;;
9052;SDS011;4561;47.450;7.516;2023-11-19T00:07:11;0.73;;;0.50;;
9052;SDS011;4561;47.450;7.516;2023-11-19T00:10:33;1.90;;;0.83;;
9052;SDS011;4561;47.450;7.516;2023-11-19T00:13:59;0.50;;;0.50;;
9052;SDS011;4561;47.450;7.516;2023-11-19T00:17:19;0.60;;;0.60;;
9052;SDS011;4561;47.450;7.516;2023-11-19T00:20:40;0.70;;;0.70;;
9052;SDS011;4561;47.450;7.516;2023-11-19T00:24:01;0.97;;;0.70;;
9052;SDS011;4561;47.450;7.516;2023-11-19T00:27:22;0.87;;;0.70;;
9052;SDS011;4561;47.450;7.516;2023-11-19T00:30:42;0.60;;;0.60;;
9052;SDS011;4561;47.450;7.516;2023-11-19T00:34:05;0.60;;;0.60;;
9052;SDS011;4561;47.450;7.516;2023-11-19T00:37:28;0.70;;;0.60;;
9052;SDS011;4561;47.450;7.516;2023-11-19T00:40:51;0.70;;;0.70;;
9052;SDS011;4561;47.450;7.516;2023-11-19T00:44:12;0.70;;;0.50;;
9052;SDS011;4561;47.450;7.516;2023-11-19T00:47:32;1.17;;;0.30;;
9052;SDS011;4561;47.450;7.516;2023-11-19T00:50:57;1.97;;;0.90;;
9052;SDS011;4561;47.450;7.516;2023-11-19T00:54:17;0.80;;;0.50;;
9052;SDS011;4561;47.450;7.516;2023-11-19T00:57:38;0.83;;;0.60;;
9052;SDS011;4561;47.450;7.516;2023-11-19T01:00:58;1.80;;;0.87;;
9052;SDS011;4561;47.450;7.516;2023-11-19T01:04:19;0.50;;;0.40;;
9052;SDS011;4561;47.450;7.516;2023-11-19T01:07:40;1.50;;;0.60;;
9052;SDS011;4561;47.450;7.516;2023-11-19T01:11:00;0.60;;;0.50;;
9052;SDS011;4561;47.450;7.516;2023-11-19T01:14:23;0.60;;;0.40;;
9052;SDS011;4561;47.450;7.516;2023-11-19T01:17:45;0.73;;;0.60;;
9052;SDS011;4561;47.450;7.516;2023-11-19T01:21:05;0.60;;;0.50;;
9052;SDS011;4561;47.450;7.516;2023-11-19T01:24:26;3.60;;;0.50;;
9052;SDS011;4561;47.450;7.516;2023-11-19T01:27:50;1.80;;;0.50;;
9052;SDS011;4561;47.450;7.516;2023-11-19T01:31:14;1.03;;;0.40;;
9052;SDS011;4561;47.450;7.516;2023-11-19T01:34:37;0.93;;;0.80;;
9052;SDS011;4561;47.450;7.516;2023-11-19T01:37:58;0.73;;;0.40;;
9052;SDS011;4561;47.450;7.516;2023-11-19T01:41:18;0.47;;;0.40;;
9052;SDS011;4561;47.450;7.516;2023-11-19T01:44:38;0.70;;;0.60;;
9052;SDS011;4561;47.450;7.516;2023-11-19T01:48:02;0.77;;;0.47;;
9052;SDS011;4561;47.450;7.516;2023-11-19T01:51:24;0.43;;;0.40;;
9052;SDS011;4561;47.450;7.516;2023-11-19T01:54:47;1.03;;;0.30;;
9052;SDS011;4561;47.450;7.516;2023-11-19T01:58:10;0.30;;;0.30;;
9052;SDS011;4561;47.450;7.516;2023-11-19T02:01:32;0.40;;;0.40;;
9052;SDS011;4561;47.450;7.516;2023-11-19T02:04:56;0.40;;;0.40;;
9052;SDS011;4561;47.450;7.516;2023-11-19T02:08:17;0.40;;;0.40;;
9052;SDS011;4561;47.450;7.516;2023-11-19T02:11:39;0.80;;;0.70;;
9052;SDS011;4561;47.450;7.516;2023-11-19T02:15:00;1.03;;;0.60;;
9052;SDS011;4561;47.450;7.516;2023-11-19T02:18:28;0.40;;;0.40;;
9052;SDS011;4561;47.450;7.516;2023-11-19T02:21:48;1.23;;;0.47;;
9052;SDS011;4561;47.450;7.516;2023-11-19T02:25:30;0.50;;;0.50;;
9052;SDS011;4561;47.450;7.516;2023-11-19T02:28:54;0.47;;;0.47;;
9052;SDS011;4561;47.450;7.516;2023-11-19T02:32:15;0.30;;;0.30;;
9052;SDS011;4561;47.450;7.516;2023-11-19T02:35:35;0.77;;;0.30;;
9052;SDS011;4561;47.450;7.516;2023-11-19T02:38:56;0.50;;;0.40;;
9052;SDS011;4561;47.450;7.516;2023-11-19T02:42:20;0.73;;;0.40;;
9052;SDS011;4561;47.450;7.516;2023-11-19T02:45:43;0.87;;;0.47;;
9052;SDS011;4561;47.450;7.516;2023-11-19T02:49:05;0.50;;;0.40;;
9052;SDS011;4561;47.450;7.516;2023-11-19T02:52:28;1.17;;;0.60;;
9052;SDS011;4561;47.450;7.516;2023-11-19T02:55:55;2.30;;;0.53;;
9052;SDS011;4561;47.450;7.516;2023-11-19T02:59:21;0.40;;;0.40;;
9052;SDS011;4561;47.450;7.516;2023-11-19T03:02:50;1.10;;;0.50;;
9052;SDS011;4561;47.450;7.516;2023-11-19T03:06:19;1.27;;;0.50;;
9052;SDS011;4561;47.450;7.516;2023-11-19T03:09:42;0.57;;;0.40;;
9052;SDS011;4561;47.450;7.516;2023-11-19T03:13:04;0.53;;;0.53;;
9052;SDS011;4561;47.450;7.516;2023-11-19T03:16:26;2.00;;;0.50;;
9052;SDS011;4561;47.450;7.516;2023-11-19T03:19:47;1.93;;;0.70;;
9052;SDS011;4561;47.450;7.516;2023-11-19T03:23:08;0.50;;;0.50;;
9052;SDS011;4561;47.450;7.516;2023-11-19T03:26:28;1.60;;;0.40;;
9052;SDS011;4561;47.450;7.516;2023-11-19T03:29:53;1.70;;;0.60;;
9052;SDS011;4561;47.450;7.516;2023-11-19T03:33:14;3.30;;;0.60;;
9052;SDS011;4561;47.450;7.516;2023-11-19T03:36:34;0.63;;;0.33;;
9052;SDS011;4561;47.450;7.516;2023-11-19T03:39:55;0.50;;;0.50;;
9052;SDS011;4561;47.450;7.516;2023-11-19T03:43:22;2.00;;;0.60;;
9052;SDS011;4561;47.450;7.516;2023-11-19T03:46:42;0.40;;;0.40;;
9052;SDS011;4561;47.450;7.516;2023-11-19T03:50:03;0.77;;;0.40;;
9052;SDS011;4561;47.450;7.516;2023-11-19T03:53:24;0.47;;;0.40;;
9052;SDS011;4561;47.450;7.516;2023-11-19T03:56:44;0.63;;;0.40;;
9052;SDS011;4561;47.450;7.516;2023-11-19T04:00:07;0.80;;;0.50;;
9052;SDS011;4561;47.450;7.516;2023-11-19T04:03:32;1.67;;;0.50;;
9052;SDS011;4561;47.450;7.516;2023-11-19T04:06:53;0.60;;;0.30;;
9052;SDS011;4561;47.450;7.516;2023-11-19T04:10:14;0.30;;;0.30;;
9052;SDS011;4561;47.450;7.516;2023-11-19T04:13:36;0.37;;;0.37;;
9052;SDS011;4561;47.450;7.516;2023-11-19T04:16:59;1.23;;;0.60;;
9052;SDS011;4561;47.450;7.516;2023-11-19T04:20:20;0.50;;;0.50;;
9052;SDS011;4561;47.450;7.516;2023-11-19T04:23:40;0.23;;;0.23;;
9052;SDS011;4561;47.450;7.516;2023-11-19T04:27:00;0.40;;;0.40;;
9052;SDS011;4561;47.450;7.516;2023-11-19T04:30:21;1.27;;;0.63;;
9052;SDS011;4561;47.450;7.516;2023-11-19T04:33:42;0.43;;;0.43;;
9052;SDS011;4561;47.450;7.516;2023-11-19T04:37:03;0.40;;;0.30;;
9052;SDS011;4561;47.450;7.516;2023-11-19T04:40:27;0.87;;;0.40;;
9052;SDS011;4561;47.450;7.516;2023-11-19T04:43:47;0.33;;;0.33;;
9052;SDS011;4561;47.450;7.516;2023-11-19T04:47:08;0.50;;;0.40;;
9052;SDS011;4561;47.450;7.516;2023-11-19T04:50:30;0.30;;;0.30;;
9052;SDS011;4561;47.450;7.516;2023-11-19T04:53:51;0.53;;;0.40;;
9052;SDS011;4561;47.450;7.516;2023-11-19T04:57:13;0.30;;;0.30;;
9052;SDS011;4561;47.450;7.516;2023-11-19T05:00:34;0.63;;;0.30;;
9052;SDS011;4561;47.450;7.516;2023-11-19T05:03:55;0.40;;;0.40;;
9052;SDS011;4561;47.450;7.516;2023-11-19T05:07:19;0.53;;;0.40;;
9052;SDS011;4561;47.450;7.516;2023-11-19T05:10:39;0.30;;;0.30;;
9052;SDS011;4561;47.450;7.516;2023-11-19T05:14:02;0.50;;;0.50;;
9052;SDS011;4561;47.450;7.516;2023-11-19T05:17:24;0.23;;;0.23;;
9052;SDS011;4561;47.450;7.516;2023-11-19T05:20:48;1.10;;;0.40;;
9052;SDS011;4561;47.450;7.516;2023-11-19T05:24:09;0.40;;;0.33;;
9052;SDS011;4561;47.450;7.516;2023-11-19T05:27:32;0.20;;;0.20;;
9052;SDS011;4561;47.450;7.516;2023-11-19T05:30:54;0.33;;;0.33;;
9052;SDS011;4561;47.450;7.516;2023-11-19T05:34:15;0.30;;;0.30;;
9052;SDS011;4561;47.450;7.516;2023-11-19T05:37:36;0.40;;;0.40;;
9052;SDS011;4561;47.450;7.516;2023-11-19T05:40:56;0.33;;;0.33;;
9052;SDS011;4561;47.450;7.516;2023-11-19T05:44:17;0.30;;;0.30;;
9052;SDS011;4561;47.450;7.516;2023-11-19T05:47:40;0.30;;;0.30;;
9052;SDS011;4561;47.450;7.516;2023-11-19T05:51:01;1.90;;;0.30;;
9052;SDS011;4561;47.450;7.516;2023-11-19T05:54:21;0.40;;;0.30;;
9052;SDS011;4561;47.450;7.516;2023-11-19T05:57:42;0.30;;;0.30;;
9052;SDS011;4561;47.450;7.516;2023-11-19T06:01:02;0.60;;;0.40;;
9052;SDS011;4561;47.450;7.516;2023-11-19T06:04:27;0.30;;;0.23;;
9052;SDS011;4561;47.450;7.516;2023-11-19T06:07:50;0.40;;;0.40;;
9052;SDS011;4561;47.450;7.516;2023-11-19T06:11:11;0.97;;;0.37;;
9052;SDS011;4561;47.450;7.516;2023-11-19T06:14:38;0.30;;;0.30;;
9052;SDS011;4561;47.450;7.516;2023-11-19T06:17:58;0.40;;;0.40;;
9052;SDS011;4561;47.450;7.516;2023-11-19T06:21:25;0.67;;;0.40;;
9052;SDS011;4561;47.450;7.516;2023-11-19T06:24:46;0.67;;;0.30;;
9052;SDS011;4561;47.450;7.516;2023-11-19T06:28:08;1.70;;;0.20;;
9052;SDS011;4561;47.450;7.516;2023-11-19T06:31:29;0.30;;;0.30;;
9052;SDS011;4561;47.450;7.516;2023-11-19T06:34:50;0.40;;;0.40;;
9052;SDS011;4561;47.450;7.516;2023-11-19T06:38:10;0.30;;;0.30;;
9052;SDS011;4561;47.450;7.516;2023-11-19T06:41:31;0.77;;;0.50;;
9052;SDS011;4561;47.450;7.516;2023-11-19T06:44:51;0.20;;;0.20;;
9052;SDS011;4561;47.450;7.516;2023-11-19T06:48:11;0.30;;;0.30;;
9052;SDS011;4561;47.450;7.516;2023-11-19T06:51:32;0.33;;;0.30;;
9052;SDS011;4561;47.450;7.516;2023-11-19T06:54:57;1.50;;;0.30;;
9052;SDS011;4561;47.450;7.516;2023-11-19T06:58:20;0.30;;;0.30;;
9052;SDS011;4561;47.450;7.516;2023-11-19T07:01:40;0.27;;;0.27;;
9052;SDS011;4561;47.450;7.516;2023-11-19T07:05:03;0.30;;;0.30;;
9052;SDS011;4561;47.450;7.516;2023-11-19T07:08:24;0.30;;;0.30;;
9052;SDS011;4561;47.450;7.516;2023-11-19T07:11:44;0.20;;;0.20;;
9052;SDS011;4561;47.450;7.516;2023-11-19T07:15:06;0.43;;;0.43;;
9052;SDS011;4561;47.450;7.516;2023-11-19T07:18:27;0.57;;;0.30;;
9052;SDS011;4561;47.450;7.516;2023-11-19T07:21:47;0.20;;;0.20;;
9052;SDS011;4561;47.450;7.516;2023-11-19T07:25:10;0.20;;;0.20;;
9052;SDS011;4561;47.450;7.516;2023-11-19T07:28:30;0.30;;;0.30;;
9052;SDS011;4561;47.450;7.516;2023-11-19T07:31:50;0.27;;;0.27;;
9052;SDS011;4561;47.450;7.516;2023-11-19T07:35:11;0.30;;;0.30;;
9052;SDS011;4561;47.450;7.516;2023-11-19T07:38:34;0.30;;;0.30;;
9052;SDS011;4561;47.450;7.516;2023-11-19T07:41:54;0.20;;;0.20;;
9052;SDS011;4561;47.450;7.516;2023-11-19T07:45:15;1.47;;;0.20;;
9052;SDS011;4561;47.450;7.516;2023-11-19T07:48:38;0.27;;;0.23;;
9052;SDS011;4561;47.450;7.516;2023-11-19T07:52:02;0.70;;;0.70;;
9052;SDS011;4561;47.450;7.516;2023-11-19T07:55:23;0.30;;;0.30;;
9052;SDS011;4561;47.450;7.516;2023-11-19T07:58:43;0.77;;;0.77;;
9052;SDS011;4561;47.450;7.516;2023-11-19T08:02:04;4.70;;;0.20;;
9052;SDS011;4561;47.450;7.516;2023-11-19T08:05:25;0.33;;;0.20;;
9052;SDS011;4561;47.450;7.516;2023-11-19T08:08:47;0.20;;;0.20;;
9052;SDS011;4561;47.450;7.516;2023-11-19T08:12:08;0.37;;;0.30;;
9052;SDS011;4561;47.450;7.516;2023-11-19T08:15:28;0.30;;;0.20;;
9052;SDS011;4561;47.450;7.516;2023-11-19T08:18:51;0.30;;;0.30;;
9052;SDS011;4561;47.450;7.516;2023-11-19T08:22:11;1.23;;;0.10;;
9052;SDS011;4561;47.450;7.516;2023-11-19T08:25:32;0.30;;;0.27;;
9052;SDS011;4561;47.450;7.516;2023-11-19T08:28:53;0.30;;;0.20;;
9052;SDS011;4561;47.450;7.516;2023-11-19T08:32:16;0.20;;;0.20;;
9052;SDS011;4561;47.450;7.516;2023-11-19T08:35:36;0.30;;;0.30;;
9052;SDS011;4561;47.450;7.516;2023-11-19T08:38:56;0.20;;;0.20;;
9052;SDS011;4561;47.450;7.516;2023-11-19T08:42:17;0.43;;;0.20;;
9052;SDS011;4561;47.450;7.516;2023-11-19T08:45:39;0.10;;;0.10;;
9052;SDS011;4561;47.450;7.516;2023-11-19T08:49:00;0.73;;;0.30;;
9052;SDS011;4561;47.450;7.516;2023-11-19T08:52:20;0.20;;;0.20;;
9052;SDS011;4561;47.450;7.516;2023-11-19T08:55:43;0.37;;;0.27;;
9052;SDS011;4561;47.450;7.516;2023-11-19T08:59:04;0.47;;;0.20;;
9052;SDS011;4561;47.450;7.516;2023-11-19T09:02:29;0.20;;;0.20;;
9052;SDS011;4561;47.450;7.516;2023-11-19T09:05:49;0.40;;;0.30;;
9052;SDS011;4561;47.450;7.516;2023-11-19T09:09:12;0.30;;;0.20;;
9052;SDS011;4561;47.450;7.516;2023-11-19T09:12:34;0.57;;;0.30;;
9052;SDS011;4561;47.450;7.516;2023-11-19T09:15:57;1.03;;;0.30;;
9052;SDS011;4561;47.450;7.516;2023-11-19T09:19:23;0.10;;;0.10;;
9052;SDS011;4561;47.450;7.516;2023-11-19T09:22:44;0.33;;;0.33;;
9052;SDS011;4561;47.450;7.516;2023-11-19T09:26:05;3.63;;;0.40;;
9052;SDS011;4561;47.450;7.516;2023-11-19T09:29:25;0.30;;;0.20;;
9052;SDS011;4561;47.450;7.516;2023-11-19T09:32:48;0.57;;;0.20;;
9052;SDS011;4561;47.450;7.516;2023-11-19T09:36:09;0.40;;;0.40;;
9052;SDS011;4561;47.450;7.516;2023-11-19T09:39:32;0.50;;;0.20;;
9052;SDS011;4561;47.450;7.516;2023-11-19T09:42:55;1.03;;;0.30;;
9052;SDS011;4561;47.450;7.516;2023-11-19T09:46:18;0.20;;;0.20;;
9052;SDS011;4561;47.450;7.516;2023-11-19T09:49:39;0.17;;;0.17;;
9052;SDS011;4561;47.450;7.516;2023-11-19T09:53:02;0.60;;;0.30;;
9052;SDS011;4561;47.450;7.516;2023-11-19T09:56:23;1.03;;;0.30;;
9052;SDS011;4561;47.450;7.516;2023-11-19T09:59:43;0.30;;;0.27;;
9052;SDS011;4561;47.450;7.516;2023-11-19T10:03:07;0.60;;;0.40;;
9052;SDS011;4561;47.450;7.516;2023-11-19T10:06:31;0.20;;;0.20;;
9052;SDS011;4561;47.450;7.516;2023-11-19T10:09:51;0.30;;;0.30;;
9052;SDS011;4561;47.450;7.516;2023-11-19T10:13:14;0.40;;;0.40;;
9052;SDS011;4561;47.450;7.516;2023-11-19T10:16:35;0.43;;;0.30;;
9052;SDS011;4561;47.450;7.516;2023-11-19T10:19:58;0.40;;;0.40;;
9052;SDS011;4561;47.450;7.516;2023-11-19T10:23:22;1.40;;;1.30;;
9052;SDS011;4561;47.450;7.516;2023-11-19T10:26:45;0.73;;;0.60;;
9052;SDS011;4561;47.450;7.516;2023-11-19T10:30:06;0.37;;;0.37;;
9052;SDS011;4561;47.450;7.516;2023-11-19T10:33:29;2.00;;;1.73;;
9052;SDS011;4561;47.450;7.516;2023-11-19T10:36:52;0.63;;;0.63;;
9052;SDS011;4561;47.450;7.516;2023-11-19T10:40:13;0.67;;;0.57;;
9052;SDS011;4561;47.450;7.516;2023-11-19T10:43:43;0.70;;;0.70;;
9052;SDS011;4561;47.450;7.516;2023-11-19T10:47:08;1.00;;;0.90;;
9052;SDS011;4561;47.450;7.516;2023-11-19T10:50:29;0.60;;;0.60;;
9052;SDS011;4561;47.450;7.516;2023-11-19T10:53:51;0.37;;;0.37;;
9052;SDS011;4561;47.450;7.516;2023-11-19T10:57:12;0.60;;;0.60;;
9052;SDS011;4561;47.450;7.516;2023-11-19T11:04:14;0.50;;;0.50;;
9052;SDS011;4561;47.450;7.516;2023-11-19T11:07:44;0.33;;;0.33;;
9052;SDS011;4561;47.450;7.516;2023-11-19T11:11:05;1.03;;;0.70;;
9052;SDS011;4561;47.450;7.516;2023-11-19T11:14:26;1.90;;;0.30;;
9052;SDS011;4561;47.450;7.516;2023-11-19T11:17:47;0.47;;;0.33;;
9052;SDS011;4561;47.450;7.516;2023-11-19T11:21:09;2.43;;;1.87;;
9052;SDS011;4561;47.450;7.516;2023-11-19T11:24:46;1.07;;;0.60;;
9052;SDS011;4561;47.450;7.516;2023-11-19T11:28:18;2.17;;;0.60;;
9052;SDS011;4561;47.450;7.516;2023-11-19T11:39:24;0.50;;;0.33;;
9052;SDS011;4561;47.450;7.516;2023-11-19T11:42:45;2.67;;;0.43;;
9052;SDS011;4561;47.450;7.516;2023-11-19T11:46:07;1.60;;;0.40;;
9052;SDS011;4561;47.450;7.516;2023-11-19T11:49:28;0.50;;;0.50;;
9052;SDS011;4561;47.450;7.516;2023-11-19T11:56:16;1.97;;;0.50;;
9052;SDS011;4561;47.450;7.516;2023-11-19T11:59:37;0.60;;;0.60;;
9052;SDS011;4561;47.450;7.516;2023-11-19T12:03:05;1.33;;;0.50;;
9052;SDS011;4561;47.450;7.516;2023-11-19T12:06:29;1.00;;;0.40;;
9052;SDS011;4561;47.450;7.516;2023-11-19T12:09:53;0.57;;;0.30;;
9052;SDS011;4561;47.450;7.516;2023-11-19T12:13:42;0.90;;;0.40;;
9052;SDS011;4561;47.450;7.516;2023-11-19T12:20:53;0.33;;;0.33;;
9052;SDS011;4561;47.450;7.516;2023-11-19T12:24:16;0.50;;;0.50;;
9052;SDS011;4561;47.450;7.516;2023-11-19T12:27:39;1.70;;;0.50;;
9052;SDS011;4561;47.450;7.516;2023-11-19T12:31:07;0.53;;;0.47;;
9052;SDS011;4561;47.450;7.516;2023-11-19T12:34:29;1.07;;;0.57;;
9052;SDS011;4561;47.450;7.516;2023-11-19T12:37:49;0.40;;;0.40;;
9052;SDS011;4561;47.450;7.516;2023-11-19T12:41:13;0.70;;;0.50;;
9052;SDS011;4561;47.450;7.516;2023-11-19T12:44:37;1.03;;;0.60;;
9052;SDS011;4561;47.450;7.516;2023-11-19T12:48:04;1.07;;;0.67;;
9052;SDS011;4561;47.450;7.516;2023-11-19T12:51:30;2.53;;;0.50;;
9052;SDS011;4561;47.450;7.516;2023-11-19T12:54:51;0.57;;;0.40;;
9052;SDS011;4561;47.450;7.516;2023-11-19T12:58:31;0.50;;;0.50;;
9052;SDS011;4561;47.450;7.516;2023-11-19T13:01:58;1.47;;;0.43;;
9052;SDS011;4561;47.450;7.516;2023-11-19T13:08:52;0.40;;;0.40;;
9052;SDS011;4561;47.450;7.516;2023-11-19T13:12:18;0.50;;;0.50;;
9052;SDS011;4561;47.450;7.516;2023-11-19T13:15:41;0.43;;;0.43;;
9052;SDS011;4561;47.450;7.516;2023-11-19T13:19:03;2.50;;;0.60;;
9052;SDS011;4561;47.450;7.516;2023-11-19T13:22:25;0.60;;;0.53;;
9052;SDS011;4561;47.450;7.516;2023-11-19T13:25:46;0.90;;;0.53;;
9052;SDS011;4561;47.450;7.516;2023-11-19T13:29:06;1.30;;;0.70;;
9052;SDS011;4561;47.450;7.516;2023-11-19T13:32:27;0.90;;;0.60;;
9052;SDS011;4561;47.450;7.516;2023-11-19T13:35:47;1.97;;;0.60;;
9052;SDS011;4561;47.450;7.516;2023-11-19T13:39:08;3.63;;;0.70;;
9052;SDS011;4561;47.450;7.516;2023-11-19T13:42:28;1.63;;;0.50;;
9052;SDS011;4561;47.450;7.516;2023-11-19T13:45:49;1.30;;;0.70;;
9052;SDS011;4561;47.450;7.516;2023-11-19T13:49:09;1.67;;;0.73;;
9052;SDS011;4561;47.450;7.516;2023-11-19T13:52:32;1.83;;;0.80;;
9052;SDS011;4561;47.450;7.516;2023-11-19T13:55:56;1.10;;;0.50;;
9052;SDS011;4561;47.450;7.516;2023-11-19T13:59:19;2.03;;;0.53;;
9052;SDS011;4561;47.450;7.516;2023-11-19T14:02:40;3.07;;;0.80;;
9052;SDS011;4561;47.450;7.516;2023-11-19T14:06:00;1.33;;;0.40;;
9052;SDS011;4561;47.450;7.516;2023-11-19T14:09:21;0.73;;;0.50;;
9052;SDS011;4561;47.450;7.516;2023-11-19T14:12:44;0.90;;;0.70;;
9052;SDS011;4561;47.450;7.516;2023-11-19T14:16:04;2.07;;;0.60;;
9052;SDS011;4561;47.450;7.516;2023-11-19T14:19:26;3.37;;;0.50;;
9052;SDS011;4561;47.450;7.516;2023-11-19T14:22:49;1.80;;;0.60;;
9052;SDS011;4561;47.450;7.516;2023-11-19T14:26:12;0.47;;;0.40;;
9052;SDS011;4561;47.450;7.516;2023-11-19T14:29:33;1.30;;;0.57;;
9052;SDS011;4561;47.450;7.516;2023-11-19T14:32:54;0.93;;;0.57;;
9052;SDS011;4561;47.450;7.516;2023-11-19T14:36:14;1.47;;;0.60;;
9052;SDS011;4561;47.450;7.516;2023-11-19T14:39:37;1.80;;;0.50;;
9052;SDS011;4561;47.450;7.516;2023-11-19T14:42:57;0.70;;;0.50;;
9052;SDS011;4561;47.450;7.516;2023-11-19T14:46:17;1.27;;;0.40;;
9052;SDS011;4561;47.450;7.516;2023-11-19T14:49:38;1.37;;;0.50;;
9052;SDS011;4561;47.450;7.516;2023-11-19T14:53:03;0.80;;;0.40;;
9052;SDS011;4561;47.450;7.516;2023-11-19T14:56:26;0.87;;;0.40;;
9052;SDS011;4561;47.450;7.516;2023-11-19T14:59:46;0.60;;;0.60;;
9052;SDS011;4561;47.450;7.516;2023-11-19T15:03:07;1.03;;;0.50;;
9052;SDS011;4561;47.450;7.516;2023-11-19T15:06:32;1.70;;;0.47;;
9052;SDS011;4561;47.450;7.516;2023-11-19T15:09:53;0.93;;;0.60;;
9052;SDS011;4561;47.450;7.516;2023-11-19T15:13:16;7.13;;;1.90;;
9052;SDS011;4561;47.450;7.516;2023-11-19T15:16:36;3.80;;;1.50;;
9052;SDS011;4561;47.450;7.516;2023-11-19T15:19:57;1.77;;;0.77;;
9052;SDS011;4561;47.450;7.516;2023-11-19T15:23:18;1.13;;;0.73;;
9052;SDS011;4561;47.450;7.516;2023-11-19T15:26:39;1.50;;;0.70;;
9052;SDS011;4561;47.450;7.516;2023-11-19T15:30:03;4.53;;;1.17;;
9052;SDS011;4561;47.450;7.516;2023-11-19T15:33:25;0.73;;;0.50;;
9052;SDS011;4561;47.450;7.516;2023-11-19T15:36:47;0.60;;;0.50;;
9052;SDS011;4561;47.450;7.516;2023-11-19T15:40:08;0.57;;;0.40;;
9052;SDS011;4561;47.450;7.516;2023-11-19T15:43:29;0.87;;;0.53;;
9052;SDS011;4561;47.450;7.516;2023-11-19T15:46:49;0.90;;;0.60;;
9052;SDS011;4561;47.450;7.516;2023-11-19T15:50:10;0.40;;;0.30;;
9052;SDS011;4561;47.450;7.516;2023-11-19T15:53:33;1.73;;;0.70;;
9052;SDS011;4561;47.450;7.516;2023-11-19T15:56:53;0.90;;;0.67;;
9052;SDS011;4561;47.450;7.516;2023-11-19T16:00:16;1.77;;;1.10;;
9052;SDS011;4561;47.450;7.516;2023-11-19T16:03:39;1.20;;;0.80;;
9052;SDS011;4561;47.450;7.516;2023-11-19T16:07:02;1.27;;;1.17;;
9052;SDS011;4561;47.450;7.516;2023-11-19T16:10:23;0.63;;;0.63;;
9052;SDS011;4561;47.450;7.516;2023-11-19T16:13:43;0.30;;;0.30;;
9052;SDS011;4561;47.450;7.516;2023-11-19T16:17:04;0.73;;;0.50;;
9052;SDS011;4561;47.450;7.516;2023-11-19T16:20:24;0.40;;;0.40;;
9052;SDS011;4561;47.450;7.516;2023-11-19T16:23:45;0.23;;;0.23;;
9052;SDS011;4561;47.450;7.516;2023-11-19T16:27:05;0.50;;;0.40;;
9052;SDS011;4561;47.450;7.516;2023-11-19T16:30:26;1.17;;;0.33;;
9052;SDS011;4561;47.450;7.516;2023-11-19T16:33:46;0.70;;;0.47;;
9052;SDS011;4561;47.450;7.516;2023-11-19T16:37:07;0.80;;;0.40;;
9052;SDS011;4561;47.450;7.516;2023-11-19T16:40:27;0.43;;;0.40;;
9052;SDS011;4561;47.450;7.516;2023-11-19T16:43:50;0.50;;;0.50;;
9052;SDS011;4561;47.450;7.516;2023-11-19T16:47:15;0.70;;;0.57;;
9052;SDS011;4561;47.450;7.516;2023-11-19T16:50:37;0.70;;;0.40;;
9052;SDS011;4561;47.450;7.516;2023-11-19T16:54:02;0.40;;;0.40;;
9052;SDS011;4561;47.450;7.516;2023-11-19T16:57:25;1.70;;;0.40;;
9052;SDS011;4561;47.450;7.516;2023-11-19T17:00:47;0.50;;;0.30;;
9052;SDS011;4561;47.450;7.516;2023-11-19T17:04:07;0.70;;;0.33;;
9052;SDS011;4561;47.450;7.516;2023-11-19T17:07:28;1.33;;;0.30;;
9052;SDS011;4561;47.450;7.516;2023-11-19T17:10:48;1.03;;;0.30;;
9052;SDS011;4561;47.450;7.516;2023-11-19T17:14:11;2.53;;;0.50;;
9052;SDS011;4561;47.450;7.516;2023-11-19T17:17:32;0.23;;;0.23;;
9052;SDS011;4561;47.450;7.516;2023-11-19T17:20:57;0.40;;;0.33;;
9052;SDS011;4561;47.450;7.516;2023-11-19T17:24:18;0.20;;;0.20;;
9052;SDS011;4561;47.450;7.516;2023-11-19T17:27:38;0.37;;;0.37;;
9052;SDS011;4561;47.450;7.516;2023-11-19T17:31:03;0.40;;;0.40;;
9052;SDS011;4561;47.450;7.516;2023-11-19T17:34:23;0.70;;;0.30;;
9052;SDS011;4561;47.450;7.516;2023-11-19T17:37:47;0.30;;;0.30;;
9052;SDS011;4561;47.450;7.516;2023-11-19T17:41:07;0.30;;;0.30;;
9052;SDS011;4561;47.450;7.516;2023-11-19T17:44:31;0.30;;;0.30;;
9052;SDS011;4561;47.450;7.516;2023-11-19T17:47:52;0.30;;;0.30;;
9052;SDS011;4561;47.450;7.516;2023-11-19T17:51:13;1.47;;;0.30;;
9052;SDS011;4561;47.450;7.516;2023-11-19T17:54:39;0.50;;;0.27;;
9052;SDS011;4561;47.450;7.516;2023-11-19T17:58:02;0.40;;;0.30;;
9052;SDS011;4561;47.450;7.516;2023-11-19T18:01:22;0.20;;;0.20;;
9052;SDS011;4561;47.450;7.516;2023-11-19T18:04:46;0.87;;;0.40;;
9052;SDS011;4561;47.450;7.516;2023-11-19T18:08:13;0.53;;;0.40;;
9052;SDS011;4561;47.450;7.516;2023-11-19T18:11:39;0.27;;;0.27;;
9052;SDS011;4561;47.450;7.516;2023-11-19T18:14:59;0.93;;;0.40;;
9052;SDS011;4561;47.450;7.516;2023-11-19T18:18:23;0.30;;;0.30;;
9052;SDS011;4561;47.450;7.516;2023-11-19T18:21:44;0.40;;;0.40;;
9052;SDS011;4561;47.450;7.516;2023-11-19T18:25:07;1.40;;;0.47;;
9052;SDS011;4561;47.450;7.516;2023-11-19T18:28:33;0.40;;;0.40;;
9052;SDS011;4561;47.450;7.516;2023-11-19T18:31:53;0.93;;;0.60;;
9052;SDS011;4561;47.450;7.516;2023-11-19T18:35:16;0.90;;;0.60;;
9052;SDS011;4561;47.450;7.516;2023-11-19T18:38:42;2.73;;;2.30;;
9052;SDS011;4561;47.450;7.516;2023-11-19T18:42:05;4.03;;;3.10;;
9052;SDS011;4561;47.450;7.516;2023-11-19T18:45:28;7.13;;;5.77;;
9052;SDS011;4561;47.450;7.516;2023-11-19T18:48:51;11.83;;;8.97;;
9052;SDS011;4561;47.450;7.516;2023-11-19T18:52:12;5.67;;;4.77;;
9052;SDS011;4561;47.450;7.516;2023-11-19T18:55:32;7.87;;;5.60;;
9052;SDS011;4561;47.450;7.516;2023-11-19T18:58:53;0.70;;;0.60;;
9052;SDS011;4561;47.450;7.516;2023-11-19T19:02:16;1.00;;;0.80;;
9052;SDS011;4561;47.450;7.516;2023-11-19T19:05:39;1.40;;;0.70;;
9052;SDS011;4561;47.450;7.516;2023-11-19T19:09:00;0.70;;;0.53;;
9052;SDS011;4561;47.450;7.516;2023-11-19T19:12:20;1.10;;;0.50;;
9052;SDS011;4561;47.450;7.516;2023-11-19T19:15:41;0.70;;;0.70;;
9052;SDS011;4561;47.450;7.516;2023-11-19T19:19:01;0.87;;;0.60;;
9052;SDS011;4561;47.450;7.516;2023-11-19T19:22:22;1.00;;;0.60;;
9052;SDS011;4561;47.450;7.516;2023-11-19T19:25:42;0.63;;;0.43;;
9052;SDS011;4561;47.450;7.516;2023-11-19T19:29:02;1.53;;;0.53;;
9052;SDS011;4561;47.450;7.516;2023-11-19T19:32:25;0.93;;;0.40;;
9052;SDS011;4561;47.450;7.516;2023-11-19T19:35:46;2.10;;;0.60;;
9052;SDS011;4561;47.450;7.516;2023-11-19T19:39:06;1.37;;;0.40;;
9052;SDS011;4561;47.450;7.516;2023-11-19T19:42:34;1.13;;;0.40;;
9052;SDS011;4561;47.450;7.516;2023-11-19T19:45:54;0.83;;;0.40;;
9052;SDS011;4561;47.450;7.516;2023-11-19T19:49:14;0.80;;;0.70;;
9052;SDS011;4561;47.450;7.516;2023-11-19T19:52:37;0.60;;;0.53;;
9052;SDS011;4561;47.450;7.516;2023-11-19T19:55:58;0.70;;;0.63;;
9052;SDS011;4561;47.450;7.516;2023-11-19T19:59:23;0.67;;;0.60;;
9052;SDS011;4561;47.450;7.516;2023-11-19T20:02:44;0.50;;;0.50;;
9052;SDS011;4561;47.450;7.516;2023-11-19T20:06:04;1.13;;;0.80;;
9052;SDS011;4561;47.450;7.516;2023-11-19T20:09:31;1.90;;;0.53;;
9052;SDS011;4561;47.450;7.516;2023-11-19T20:12:54;0.40;;;0.40;;
9052;SDS011;4561;47.450;7.516;2023-11-19T20:16:14;0.97;;;0.50;;
9052;SDS011;4561;47.450;7.516;2023-11-19T20:19:37;0.67;;;0.50;;
9052;SDS011;4561;47.450;7.516;2023-11-19T20:23:04;0.50;;;0.50;;
9052;SDS011;4561;47.450;7.516;2023-11-19T20:26:24;1.33;;;0.60;;
9052;SDS011;4561;47.450;7.516;2023-11-19T20:29:45;2.67;;;0.60;;
9052;SDS011;4561;47.450;7.516;2023-11-19T20:33:08;1.37;;;0.43;;
9052;SDS011;4561;47.450;7.516;2023-11-19T20:36:35;2.13;;;0.70;;
9052;SDS011;4561;47.450;7.516;2023-11-19T20:39:56;2.10;;;0.50;;
9052;SDS011;4561;47.450;7.516;2023-11-19T20:43:19;1.10;;;0.70;;
9052;SDS011;4561;47.450;7.516;2023-11-19T20:46:40;1.50;;;0.80;;
9052;SDS011;4561;47.450;7.516;2023-11-19T20:50:01;0.70;;;0.70;;
9052;SDS011;4561;47.450;7.516;2023-11-19T20:53:25;3.60;;;0.90;;
9052;SDS011;4561;47.450;7.516;2023-11-19T20:56:45;2.57;;;0.67;;
9052;SDS011;4561;47.450;7.516;2023-11-19T21:00:05;3.27;;;0.90;;
9052;SDS011;4561;47.450;7.516;2023-11-19T21:03:26;2.07;;;0.83;;
9052;SDS011;4561;47.450;7.516;2023-11-19T21:06:50;0.70;;;0.60;;
9052;SDS011;4561;47.450;7.516;2023-11-19T21:10:12;1.77;;;0.90;;
9052;SDS011;4561;47.450;7.516;2023-11-19T21:13:33;2.37;;;0.90;;
9052;SDS011;4561;47.450;7.516;2023-11-19T21:16:55;1.33;;;0.90;;